X  Tanca Dades meteorològiques de l'aviació METAR     EDDK Cologne Bonn Airport
Temperatura
13°C Temperatura
11°C Rosada
88% Humitat



Vent
4 M/S
9 MPH
14 KM/H
8 NUS



250°
OSO
Condicions actuals

Força ennuvolat Força ennuvolat
Pressió 1012.87 (hPa) - 29.91 (inHg)
Visibilitat 6 (milla) - 9.7 (km)
Aeroport
Codi aeroport EDDK

Ubicació: Cologne Bonn Airport
Distància: 56 (km)

Metar:
EDDK 130250Z AUTO 25008KT 9999 BKN014 BKN019 13/11 Q1013 BECMG BKN015

Temps: 2024-07-13 04:50 CEST